CheckWX is a tool to help pilots better visualize weather data.  It is not intended as a substitute for an official pre-flight weather briefing.

20:12:50 UTC

KRDR METAR
Grand Forks AFB Airport
Grand Forks, North Dakota, USA
Current

1 hour ago

KRDR 231856Z 23011G19KT 10SM BKN180 18/06 A2995 RMK A02A SLP145 WND DATA ESTMD ALSTG/SLP ESTMD $
Observed
Apr-23 @ 18:56 UTC
Wind
  • 230° at 11 KTS
  • Gusting to 19 KTS
Visibility
10 SM
Flight Rules
VFR
Cloud Levels
  • Broken at 18,000' AGL
Temperature
18°C / 64°F
Dewpoint
C / 43°F
Humidity
46%
Altimeter
29.95" Hg
Pressure
1014.22 hPa
Previous

2 hours ago

KRDR 231756Z 21009G18KT 10SM FEW090 BKN200 16/04 A3000 RMK A02A SLP160 WND DATA ESTMD ALSTG ESTMD 10061 20023 58028 $
Observed
Apr-23 @ 17:56 UTC
Wind
  • 210° at 9 KTS
  • Gusting to 18 KTS
Visibility
10 SM
Flight Rules
VFR
Cloud Levels
  • Few at 9,000' AGL
  • Broken at 20,000' AGL
Temperature
16°C / 61°F
Dewpoint
C / 39°F
Humidity
45%
Altimeter
30" Hg
Pressure
1015.92 hPa
Previous

3 hours ago

KRDR 231659Z 19009G18KT 10SM FEW230 15/01 A3003 RMK A02A SLP170 WND DATA ESTMD ALSTG/SLP ESTMD $
Observed
Apr-23 @ 16:59 UTC
Wind
  • 190° at 9 KTS
  • Gusting to 18 KTS
Visibility
10 SM
Flight Rules
VFR
Cloud Levels
  • Few at 23,000' AGL
Temperature
15°C / 59°F
Dewpoint
C / 34°F
Humidity
39%
Altimeter
30.03" Hg
Pressure
1016.92 hPa